TimeEDT,TemperatureF,Dew PointF,Humidity,Sea Level PressureIn,VisibilityMPH,Wind Direction,Wind SpeedMPH,Gust SpeedMPH,PrecipitationIn,Events,Conditions,WindDirDegrees,DateUTC
12:15 AM,50.5,49.6,97,29.84,5.0,WSW,5.8,-,N/A,Rain,Rain,240,2013-03-12 04:15:00
12:35 AM,49.6,48.2,95,29.83,7.0,WSW,5.8,-,N/A,,Drizzle,250,2013-03-12 04:35:00
12:55 AM,49.1,48.2,97,29.83,10.0,West,5.8,-,N/A,,Light Drizzle,270,2013-03-12 04:55:00
1:15 AM,49.1,47.5,94,29.83,10.0,West,6.9,-,N/A,,Overcast,270,2013-03-12 05:15:00
1:35 AM,48.4,47.1,95,29.83,10.0,West,6.9,-,N/A,,Light Drizzle,270,2013-03-12 05:35:00
1:55 AM,48.2,46.6,94,29.82,10.0,WNW,6.9,-,N/A,,Overcast,290,2013-03-12 05:55:00
2:15 AM,46.2,44.6,94,29.84,7.0,WSW,11.5,-,N/A,Rain,Light Rain,250,2013-03-12 06:15:00
2:35 AM,45.5,43.9,94,29.84,10.0,West,8.1,-,N/A,Rain,Rain,280,2013-03-12 06:35:00
2:55 AM,44.8,43.5,95,29.85,7.0,West,9.2,-,N/A,,Drizzle,280,2013-03-12 06:55:00
3:15 AM,43.7,42.3,95,29.84,5.0,West,4.6,-,N/A,,Overcast,280,2013-03-12 07:15:00
3:35 AM,43.3,42.1,95,29.85,10.0,West,6.9,-,N/A,,Overcast,270,2013-03-12 07:35:00
3:55 AM,42.8,41.5,95,29.84,7.0,West,6.9,-,N/A,,Overcast,280,2013-03-12 07:55:00
4:15 AM,41.9,40.6,95,29.85,10.0,West,8.1,-,N/A,,Overcast,260,2013-03-12 08:15:00
4:35 AM,41.7,40.8,97,29.85,5.0,West,5.8,-,N/A,,Overcast,260,2013-03-12 08:35:00
4:55 AM,41.4,40.5,97,29.85,3.0,West,8.1,-,N/A,,Overcast,260,2013-03-12 08:55:00
5:15 AM,40.6,39.9,97,29.86,2.5,West,4.6,-,N/A,,Drizzle,270,2013-03-12 09:15:00
5:35 AM,39.7,37.8,93,29.86,3.0,Calm,Calm,-,N/A,,Overcast,0,2013-03-12 09:35:00
5:55 AM,39.6,37.2,91,29.87,3.0,NNW,3.5,-,N/A,,Overcast,330,2013-03-12 09:55:00
6:15 AM,39.6,36.7,89,29.87,7.0,Calm,Calm,-,N/A,,Overcast,0,2013-03-12 10:15:00
6:35 AM,39.2,36.9,91,29.89,7.0,NW,3.5,-,N/A,,Overcast,310,2013-03-12 10:35:00
6:55 AM,38.8,35.2,87,29.89,10.0,NNW,8.1,-,N/A,,Overcast,330,2013-03-12 10:55:00
7:15 AM,38.7,37.4,95,29.90,3.0,Calm,Calm,-,N/A,,Overcast,0,2013-03-12 11:15:00
7:35 AM,38.3,34.2,85,29.93,10.0,North,9.2,19.6,N/A,,Overcast,350,2013-03-12 11:35:00
7:55 AM,37.8,34.9,89,29.93,7.0,North,4.6,-,N/A,,Overcast,350,2013-03-12 11:55:00
8:15 AM,37.6,33.6,86,29.94,10.0,North,4.6,-,N/A,,Overcast,10,2013-03-12 12:15:00
8:35 AM,37.6,33.6,86,29.94,10.0,East,5.8,-,N/A,,Overcast,80,2013-03-12 12:35:00
8:55 AM,37.4,33.1,84,29.95,10.0,East,4.6,-,N/A,,Overcast,100,2013-03-12 12:55:00
9:15 AM,37.9,32.5,81,29.96,10.0,ESE,4.6,-,N/A,,Mostly Cloudy,110,2013-03-12 13:15:00
9:35 AM,39.2,32.7,78,29.96,10.0,East,5.8,-,N/A,,Scattered Clouds,90,2013-03-12 13:35:00
9:55 AM,40.3,33.1,75,29.95,10.0,ESE,4.6,-,N/A,,Clear,110,2013-03-12 13:55:00
10:15 AM,41.0,32.7,72,29.96,10.0,East,5.8,-,N/A,,Clear,100,2013-03-12 14:15:00
10:35 AM,42.3,32.7,69,29.96,10.0,ESE,3.5,-,N/A,,Clear,120,2013-03-12 14:35:00
10:55 AM,42.6,32.9,68,29.96,10.0,Calm,Calm,-,N/A,,Clear,0,2013-03-12 14:55:00
11:15 AM,43.7,32.9,66,29.97,10.0,Calm,Calm,-,N/A,,Scattered Clouds,0,2013-03-12 15:15:00
11:35 AM,44.6,33.4,65,29.98,10.0,SE,3.5,-,N/A,,Scattered Clouds,130,2013-03-12 15:35:00
11:55 AM,45.5,34.2,65,29.98,10.0,Calm,Calm,-,N/A,,Clear,0,2013-03-12 15:55:00
12:15 PM,46.4,33.1,60,29.98,10.0,Calm,Calm,-,N/A,,Clear,0,2013-03-12 16:15:00
12:35 PM,47.7,33.8,59,29.98,10.0,SSE,4.6,-,N/A,,Clear,150,2013-03-12 16:35:00
12:55 PM,49.1,33.6,55,29.98,10.0,South,3.5,-,N/A,,Clear,190,2013-03-12 16:55:00
1:15 PM,50.7,35.1,55,29.97,10.0,ESE,3.5,-,N/A,,Clear,120,2013-03-12 17:15:00
1:35 PM,50.5,35.2,56,29.97,10.0,Calm,Calm,-,N/A,,Clear,0,2013-03-12 17:35:00
1:55 PM,52.2,33.8,50,29.97,10.0,SSW,3.5,-,N/A,,Clear,200,2013-03-12 17:55:00
2:15 PM,53.1,36.1,53,29.97,10.0,West,8.1,-,N/A,,Clear,260,2013-03-12 18:15:00
2:35 PM,52.3,37.4,57,29.96,10.0,West,6.9,-,N/A,,Scattered Clouds,280,2013-03-12 18:35:00
2:55 PM,53.2,37.8,56,29.96,10.0,WSW,6.9,-,N/A,,Scattered Clouds,250,2013-03-12 18:55:00
3:15 PM,54.0,36.5,52,29.96,10.0,SSW,4.6,-,N/A,,Mostly Cloudy,210,2013-03-12 19:15:00
3:35 PM,54.7,36.5,50,29.95,10.0,South,6.9,-,N/A,,Scattered Clouds,170,2013-03-12 19:35:00
3:55 PM,55.6,34.5,45,29.95,10.0,ENE,3.5,-,N/A,,Clear,70,2013-03-12 19:55:00
4:15 PM,55.0,33.3,44,29.95,10.0,ENE,12.7,-,N/A,,Clear,70,2013-03-12 20:15:00
4:35 PM,55.0,32.5,43,29.95,10.0,East,4.6,-,N/A,,Clear,100,2013-03-12 20:35:00
4:55 PM,55.4,32.0,41,29.95,10.0,NE,8.1,-,N/A,,Clear,40,2013-03-12 20:55:00
5:15 PM,54.5,31.3,41,29.96,10.0,NE,11.5,-,N/A,,Clear,40,2013-03-12 21:15:00
5:35 PM,53.6,32.2,44,29.97,10.0,NNE,11.5,17.3,N/A,,Clear,30,2013-03-12 21:35:00
5:55 PM,52.3,31.5,45,29.98,10.0,NE,9.2,-,N/A,,Clear,40,2013-03-12 21:55:00
6:15 PM,51.4,29.3,43,29.98,10.0,NNE,9.2,-,N/A,,Clear,30,2013-03-12 22:15:00
6:35 PM,51.6,27.3,39,29.99,10.0,North,9.2,-,N/A,,Clear,10,2013-03-12 22:35:00
6:55 PM,50.2,26.4,40,29.99,10.0,NNW,8.1,11.5,N/A,,Clear,340,2013-03-12 22:55:00
7:15 PM,49.1,26.8,42,30.01,10.0,NNE,4.6,-,N/A,,Clear,20,2013-03-12 23:15:00
7:35 PM,46.8,29.8,52,30.01,10.0,ESE,6.9,-,N/A,,Clear,110,2013-03-12 23:35:00
7:55 PM,46.4,29.3,51,30.02,10.0,ENE,4.6,-,N/A,,Clear,70,2013-03-12 23:55:00
8:15 PM,41.9,31.5,66,30.03,10.0,Calm,Calm,-,N/A,,Clear,0,2013-03-13 00:15:00
8:35 PM,40.6,31.3,69,30.04,10.0,Calm,Calm,-,N/A,,Clear,0,2013-03-13 00:35:00
8:55 PM,39.4,31.1,72,30.05,10.0,Calm,Calm,-,N/A,,Clear,0,2013-03-13 00:55:00
9:15 PM,37.6,31.3,78,30.06,10.0,Calm,Calm,-,N/A,,Clear,0,2013-03-13 01:15:00
9:35 PM,36.7,30.7,79,30.06,10.0,Calm,Calm,-,N/A,,Clear,0,2013-03-13 01:35:00
9:55 PM,35.6,31.3,84,30.06,10.0,Calm,Calm,-,N/A,,Clear,0,2013-03-13 01:55:00
10:15 PM,35.8,31.1,83,30.07,10.0,Calm,Calm,-,N/A,,Clear,0,2013-03-13 02:15:00
10:35 PM,35.2,30.6,83,30.08,10.0,Calm,Calm,-,N/A,,Clear,0,2013-03-13 02:35:00
10:55 PM,34.2,31.5,90,30.08,10.0,Calm,Calm,-,N/A,,Clear,0,2013-03-13 02:55:00
11:15 PM,33.1,30.4,90,30.08,10.0,Calm,Calm,-,N/A,,Clear,0,2013-03-13 03:15:00
11:35 PM,33.3,30.2,89,30.09,10.0,Calm,Calm,-,N/A,,Clear,0,2013-03-13 03:35:00
11:55 PM,32.9,30.0,89,30.10,10.0,Calm,Calm,-,N/A,,Clear,0,2013-03-13 03:55:00